createdAt,value
2023-04-04T00:00:39.416Z,6.885
2023-04-04T00:01:54.927Z,6.895
2023-04-04T00:02:37.799Z,6.875
2023-04-04T00:03:37.809Z,6.875
2023-04-04T00:04:37.950Z,6.875
2023-04-04T00:05:37.211Z,6.875
2023-04-04T00:06:37.522Z,6.811
2023-04-04T00:07:37.372Z,6.811
2023-04-04T00:08:37.196Z,6.811
2023-04-04T00:09:37.450Z,6.811
2023-04-04T00:10:37.551Z,6.794
2023-04-04T00:11:37.454Z,6.787
2023-04-04T00:12:40.981Z,6.770
2023-04-04T00:13:37.046Z,6.760
2023-04-04T00:14:37.839Z,6.75
2023-04-04T00:15:37.749Z,6.739
2023-04-04T00:16:37.528Z,6.739
2023-04-04T00:17:37.195Z,6.75
2023-04-04T00:18:37.119Z,6.75
2023-04-04T00:19:37.079Z,6.75
2023-04-04T00:20:37.743Z,6.729
2023-04-04T00:21:37.285Z,6.729
2023-04-04T00:22:37.448Z,6.75
2023-04-04T00:23:37.201Z,6.739
2023-04-04T00:24:37.012Z,6.729
2023-04-04T00:25:37.118Z,6.697
2023-04-04T00:26:36.750Z,6.686
2023-04-04T00:27:36.969Z,6.686
2023-04-04T00:28:37.705Z,6.686
2023-04-04T00:29:37.403Z,6.686
2023-04-04T00:30:37.452Z,6.676
2023-04-04T00:31:37.267Z,6.645
2023-04-04T00:32:37.503Z,6.635
2023-04-04T00:33:37.610Z,6.625
2023-04-04T00:34:37.329Z,6.625
2023-04-04T00:35:37.855Z,6.625
2023-04-04T00:36:38.259Z,6.625
2023-04-04T00:37:37.229Z,6.625
2023-04-04T00:38:36.827Z,6.625
2023-04-04T00:39:37.553Z,6.625
2023-04-04T00:40:37.043Z,6.572
2023-04-04T00:41:36.543Z,6.625
2023-04-04T00:42:37.504Z,6.625
2023-04-04T00:43:37.058Z,6.625
2023-04-04T00:44:37.264Z,6.593
2023-04-04T00:45:37.238Z,6.561
2023-04-04T00:46:37.467Z,6.572
2023-04-04T00:47:37.982Z,6.561
2023-04-04T00:48:37.090Z,6.561
2023-04-04T00:49:37.138Z,6.561
2023-04-04T00:50:37.245Z,6.561
2023-04-04T00:51:37.123Z,6.541
2023-04-04T00:52:37.257Z,6.561
2023-04-04T00:53:37.088Z,6.531
2023-04-04T00:54:36.799Z,6.5
2023-04-04T00:55:37.826Z,6.531
2023-04-04T00:56:37.258Z,6.541
2023-04-04T00:57:36.763Z,6.5
2023-04-04T00:58:37.412Z,6.5
2023-04-04T00:59:37.519Z,6.5
2023-04-04T01:00:38.804Z,6.5
2023-04-04T01:01:37.729Z,6.5
2023-04-04T01:02:37.592Z,6.5
2023-04-04T01:03:37.175Z,6.489
2023-04-04T01:04:37.358Z,6.5
2023-04-04T01:05:37.068Z,6.5
2023-04-04T01:06:37.191Z,6.479
2023-04-04T01:07:37.453Z,6.436
2023-04-04T01:08:37.375Z,6.436
2023-04-04T01:09:37.606Z,6.436
2023-04-04T01:10:37.884Z,6.436
2023-04-04T01:11:37.862Z,6.436
2023-04-04T01:12:37.597Z,6.436
2023-04-04T01:13:37.402Z,6.436
2023-04-04T01:14:37.638Z,6.436
2023-04-04T01:15:38.591Z,6.436
2023-04-04T01:16:37.433Z,6.436
2023-04-04T01:17:37.386Z,6.426
2023-04-04T01:18:37.451Z,6.375
2023-04-04T01:19:37.075Z,6.375
2023-04-04T01:20:37.514Z,6.375
2023-04-04T01:21:37.524Z,6.375
2023-04-04T01:22:37.085Z,6.375
2023-04-04T01:23:37.177Z,5.300
2023-04-04T01:24:37.333Z,6.375
2023-04-04T01:25:37.831Z,6.375
2023-04-04T01:26:37.548Z,6.333
2023-04-04T01:27:37.351Z,6.311
2023-04-04T01:28:36.740Z,6.311
2023-04-04T01:29:37.437Z,6.311
2023-04-04T01:30:37.855Z,6.311
2023-04-04T01:31:37.962Z,6.311
2023-04-04T01:32:42.971Z,6.311
2023-04-04T01:33:37.286Z,6.311
2023-04-04T01:34:36.856Z,6.291
2023-04-04T01:35:37.346Z,6.274
2023-04-04T01:36:44.910Z,6.311
2023-04-04T01:37:37.690Z,6.25
2023-04-04T01:38:36.989Z,6.25
2023-04-04T01:39:37.291Z,6.25
2023-04-04T01:40:37.005Z,6.25
2023-04-04T01:41:36.889Z,6.25
2023-04-04T01:42:37.945Z,6.223
2023-04-04T01:43:37.408Z,6.237
2023-04-04T01:44:36.544Z,6.25
2023-04-04T01:45:37.980Z,6.218
2023-04-04T01:46:37.379Z,6.186
2023-04-04T01:47:36.843Z,6.186
2023-04-04T01:48:37.518Z,6.186
2023-04-04T01:49:37.371Z,6.176
2023-04-04T01:50:37.761Z,6.186
2023-04-04T01:51:37.710Z,6.186
2023-04-04T01:52:37.277Z,6.186
2023-04-04T01:53:37.369Z,6.125
2023-04-04T01:54:37.387Z,6.125
2023-04-04T01:55:37.872Z,6.125
2023-04-04T01:56:37.820Z,6.186
2023-04-04T01:57:37.266Z,6.186
2023-04-04T01:58:37.169Z,6.176
2023-04-04T01:59:37.495Z,6.125
2023-04-04T02:00:38.499Z,6.125
2023-04-04T02:01:37.847Z,6.125
2023-04-04T02:02:37.795Z,6.125
2023-04-04T02:03:37.645Z,6.125
2023-04-04T02:04:37.726Z,6.093
2023-04-04T02:05:37.424Z,6.125
2023-04-04T02:06:36.964Z,6.125
2023-04-04T02:07:37.766Z,6.125
2023-04-04T02:08:37.340Z,6.125
2023-04-04T02:09:37.466Z,6.145
2023-04-04T02:10:38.164Z,6.125
2023-04-04T02:11:37.261Z,6.125
2023-04-04T02:12:37.472Z,6.125
2023-04-04T02:13:37.376Z,6.114
2023-04-04T02:14:37.216Z,6.072
2023-04-04T02:15:37.740Z,6.061
2023-04-04T02:16:37.802Z,6.061
2023-04-04T02:17:37.809Z,6.061
2023-04-04T02:18:37.554Z,6.061
2023-04-04T02:19:37.364Z,6.061
2023-04-04T02:20:38.256Z,6.061
2023-04-04T02:21:38.032Z,6.051
2023-04-04T02:22:37.114Z,6.020
2023-04-04T02:23:36.938Z,6
2023-04-04T02:24:37.767Z,6
2023-04-04T02:25:37.941Z,6
2023-04-04T02:26:38.374Z,6
2023-04-04T02:27:36.993Z,6
2023-04-04T02:28:36.429Z,6
2023-04-04T02:29:37.930Z,6
2023-04-04T02:30:38.646Z,6
2023-04-04T02:31:37.682Z,6
2023-04-04T02:32:37.992Z,6
2023-04-04T02:33:37.155Z,6
2023-04-04T02:34:37.129Z,6
2023-04-04T02:35:37.314Z,6
2023-04-04T02:36:37.102Z,6
2023-04-04T02:37:36.776Z,5.958
2023-04-04T02:38:37.641Z,5.936
2023-04-04T02:39:37.273Z,5.936
2023-04-04T02:40:36.901Z,5.936
2023-04-04T02:41:37.651Z,5.936
2023-04-04T02:42:37.702Z,5.926
2023-04-04T02:43:37.612Z,5.875
2023-04-04T02:44:37.215Z,5.875
2023-04-04T02:45:37.020Z,5.875
2023-04-04T02:46:36.951Z,5.875
2023-04-04T02:47:37.060Z,5.875
2023-04-04T02:48:37.027Z,5.875
2023-04-04T02:49:36.955Z,5.885
2023-04-04T02:50:38.271Z,5.875
2023-04-04T02:51:36.732Z,5.875
2023-04-04T02:52:36.950Z,5.875
2023-04-04T02:53:37.744Z,5.875
2023-04-04T02:54:37.755Z,5.875
2023-04-04T02:55:37.370Z,5.864
2023-04-04T02:56:37.245Z,5.811
2023-04-04T02:57:36.721Z,5.811
2023-04-04T02:58:37.339Z,5.822
2023-04-04T02:59:37.322Z,5.811
2023-04-04T03:00:38.501Z,5.811
2023-04-04T03:01:38.204Z,5.811
2023-04-04T03:02:37.912Z,5.811
2023-04-04T03:03:37.605Z,5.811
2023-04-04T03:04:37.407Z,5.811
2023-04-04T03:05:37.126Z,5.811
2023-04-04T03:06:37.118Z,5.811
2023-04-04T03:07:37.078Z,5.75
2023-04-04T03:08:36.686Z,5.791
2023-04-04T03:09:37.212Z,5.75
2023-04-04T03:10:37.094Z,5.767
2023-04-04T03:11:36.831Z,5.75
2023-04-04T03:12:37.213Z,5.75
2023-04-04T03:13:36.793Z,5.75
2023-04-04T03:14:37.440Z,5.75
2023-04-04T03:15:37.672Z,5.75
2023-04-04T03:16:37.766Z,5.75
2023-04-04T03:17:39.488Z,5.75
2023-04-04T03:18:37.366Z,5.75
2023-04-04T03:19:36.949Z,5.75
2023-04-04T03:20:37.893Z,5.75
2023-04-04T03:21:37.515Z,5.75
2023-04-04T03:22:37.432Z,5.75
2023-04-04T03:23:37.296Z,5.75
2023-04-04T03:24:37.240Z,5.75
2023-04-04T03:25:37.133Z,5.729
2023-04-04T03:26:37.264Z,5.739
2023-04-04T03:27:37.064Z,5.708
2023-04-04T03:28:37.462Z,5.718
2023-04-04T03:29:36.915Z,5.708
2023-04-04T03:30:38.238Z,5.686
2023-04-04T03:31:37.692Z,5.686
2023-04-04T03:32:37.877Z,5.686
2023-04-04T03:33:36.822Z,5.686
2023-04-04T03:34:37.355Z,5.656
2023-04-04T03:35:36.929Z,5.666
2023-04-04T03:36:37.921Z,5.645
2023-04-04T03:37:37.508Z,5.635
2023-04-04T03:38:37.041Z,5.645
2023-04-04T03:39:36.952Z,5.625
2023-04-04T03:40:37.751Z,5.625
2023-04-04T03:41:37.028Z,5.625
2023-04-04T03:42:37.008Z,5.583
2023-04-04T03:43:37.197Z,5.604
2023-04-04T03:44:37.420Z,5.583
2023-04-04T03:45:37.584Z,5.625
2023-04-04T03:46:37.561Z,5.593
2023-04-04T03:47:37.792Z,5.561
2023-04-04T03:48:37.696Z,5.561
2023-04-04T03:49:37.566Z,5.561
2023-04-04T03:50:37.791Z,5.572
2023-04-04T03:51:38.043Z,5.561
2023-04-04T03:52:37.036Z,5.561
2023-04-04T03:53:42.010Z,5.561
2023-04-04T03:54:37.099Z,5.561
2023-04-04T03:55:37.076Z,5.561
2023-04-04T03:56:37.581Z,5.531
2023-04-04T03:57:37.428Z,5.510
2023-04-04T03:58:37.066Z,5.551
2023-04-04T03:59:37.041Z,5.551
2023-04-04T04:00:38.483Z,5.510
2023-04-04T04:01:45.535Z,5.5
2023-04-04T04:02:37.657Z,5.5
2023-04-04T04:03:45.737Z,5.5
2023-04-04T04:04:37.833Z,5.5
2023-04-04T04:05:37.825Z,5.5
2023-04-04T04:06:37.598Z,5.5
2023-04-04T04:07:37.637Z,5.5
2023-04-04T04:08:39.413Z,5.5
2023-04-04T04:09:37.195Z,5.468
2023-04-04T04:10:37.658Z,5.436
2023-04-04T04:11:38.476Z,5.436
2023-04-04T04:12:37.117Z,5.436
2023-04-04T04:13:36.746Z,5.447
2023-04-04T04:14:37.718Z,5.489
2023-04-04T04:15:38.461Z,5.5
2023-04-04T04:16:37.342Z,5.468
2023-04-04T04:17:37.251Z,5.436
2023-04-04T04:18:37.453Z,5.436
2023-04-04T04:19:37.486Z,5.468
2023-04-04T04:20:37.611Z,5.489
2023-04-04T04:21:37.280Z,5.458
2023-04-04T04:22:37.448Z,5.447
2023-04-04T04:23:37.049Z,5.436
2023-04-04T04:24:37.911Z,5.436
2023-04-04T04:25:38.045Z,5.436
2023-04-04T04:26:36.890Z,5.436
2023-04-04T04:27:38.138Z,5.436
2023-04-04T04:28:47.831Z,5.447
2023-04-04T04:29:38.171Z,5.447
2023-04-04T04:30:37.593Z,5.436
2023-04-04T04:31:37.612Z,5.436
2023-04-04T04:32:37.189Z,5.436
2023-04-04T04:33:37.245Z,5.436
2023-04-04T04:34:37.187Z,5.436
2023-04-04T04:35:37.328Z,5.436
2023-04-04T04:36:37.537Z,5.436
2023-04-04T04:37:37.849Z,5.436
2023-04-04T04:38:37.819Z,5.436
2023-04-04T04:39:37.329Z,5.436
2023-04-04T04:40:37.830Z,5.426
2023-04-04T04:41:37.416Z,5.375
2023-04-04T04:42:37.347Z,5.375
2023-04-04T04:43:37.067Z,5.375
2023-04-04T04:44:37.084Z,5.375
2023-04-04T04:45:37.704Z,5.375
2023-04-04T04:46:38.605Z,5.375
2023-04-04T04:47:38.707Z,5.375
2023-04-04T04:48:37.773Z,5.364
2023-04-04T04:49:38.089Z,5.349
2023-04-04T04:50:37.282Z,5.343
2023-04-04T04:51:37.199Z,5.375
2023-04-04T04:52:37.554Z,5.354
2023-04-04T04:53:37.211Z,5.333
2023-04-04T04:54:37.094Z,5.311
2023-04-04T04:55:37.396Z,5.333
2023-04-04T04:56:37.924Z,5.333
2023-04-04T04:57:37.974Z,5.311
2023-04-04T04:58:37.859Z,5.311
2023-04-04T04:59:37.621Z,5.311
2023-04-04T05:00:39.122Z,5.301
2023-04-04T05:01:56.867Z,5.311
2023-04-04T05:02:38.244Z,5.260
2023-04-04T05:03:37.680Z,5.281
2023-04-04T05:04:37.482Z,5.260
2023-04-04T05:05:37.573Z,5.25
2023-04-04T05:06:38.116Z,5.25
2023-04-04T05:07:37.549Z,5.25
2023-04-04T05:08:38.100Z,5.25
2023-04-04T05:09:37.039Z,5.25
2023-04-04T05:10:37.589Z,5.239
2023-04-04T05:11:37.382Z,5.239
2023-04-04T05:12:37.690Z,5.229
2023-04-04T05:13:37.847Z,5.25
2023-04-04T05:14:37.740Z,5.229
2023-04-04T05:15:38.368Z,5.197
2023-04-04T05:16:37.846Z,5.218
2023-04-04T05:17:38.209Z,5.229
2023-04-04T05:18:37.370Z,5.197
2023-04-04T05:19:37.252Z,5.208
2023-04-04T05:20:37.519Z,5.186
2023-04-04T05:22:09.591Z,5.186
2023-04-04T05:22:40.830Z,5.208
2023-04-04T05:23:37.732Z,5.186
2023-04-04T05:24:37.313Z,5.186
2023-04-04T05:25:39.823Z,5.186
2023-04-04T05:26:37.546Z,5.186
2023-04-04T05:27:37.547Z,5.186
2023-04-04T05:28:37.426Z,5.186
2023-04-04T05:29:37.112Z,5.176
2023-04-04T05:30:37.454Z,5.125
2023-04-04T05:31:37.785Z,5.176
2023-04-04T05:32:38.254Z,5.186
2023-04-04T05:33:37.190Z,4.300
2023-04-04T05:34:37.165Z,5.125
2023-04-04T05:35:37.637Z,5.176
2023-04-04T05:36:37.716Z,5.176
2023-04-04T05:37:37.801Z,5.135
2023-04-04T05:38:37.780Z,5.125
2023-04-04T05:39:37.843Z,5.125
2023-04-04T05:40:38.262Z,5.125
2023-04-04T05:41:37.458Z,5.125
2023-04-04T05:42:37.708Z,5.135
2023-04-04T05:43:37.170Z,5.156
2023-04-04T05:44:37.238Z,5.125
2023-04-04T05:45:38.893Z,5.125
2023-04-04T05:46:37.795Z,5.125
2023-04-04T05:47:37.658Z,5.125
2023-04-04T05:48:37.587Z,5.125
2023-04-04T05:49:37.292Z,5.125
2023-04-04T05:50:37.851Z,5.125
2023-04-04T05:51:37.668Z,5.125
2023-04-04T05:52:37.540Z,5.125
2023-04-04T05:53:38.361Z,5.186
2023-04-04T05:54:37.221Z,5.125
2023-04-04T05:55:37.311Z,5.125
2023-04-04T05:56:37.154Z,5.125
2023-04-04T05:57:39.277Z,5.125
2023-04-04T05:58:37.003Z,5.125
2023-04-04T05:59:37.347Z,5.125
2023-04-04T06:00:38.699Z,5.125
2023-04-04T06:01:37.949Z,5.125
2023-04-04T06:02:38.156Z,5.125
2023-04-04T06:03:37.451Z,5.125
2023-04-04T06:04:37.520Z,5.125
2023-04-04T06:05:37.500Z,5.125
2023-04-04T06:06:37.581Z,5.125
2023-04-04T06:07:37.895Z,5.125
2023-04-04T06:08:50.542Z,5.125
2023-04-04T06:09:37.466Z,5.166
2023-04-04T06:10:38.131Z,5.166
2023-04-04T06:11:37.479Z,5.186
2023-04-04T06:12:37.724Z,5.186
2023-04-04T06:13:37.533Z,5.186
2023-04-04T06:14:37.329Z,5.186
2023-04-04T06:15:37.800Z,5.186
2023-04-04T06:16:43.065Z,5.186
2023-04-04T06:17:37.284Z,5.186
2023-04-04T06:18:37.140Z,5.186
2023-04-04T06:19:37.232Z,5.186
2023-04-04T06:20:37.714Z,5.186
2023-04-04T06:21:38.226Z,5.186
2023-04-04T06:22:42.642Z,5.25
2023-04-04T06:23:38.109Z,5.25
2023-04-04T06:24:37.616Z,5.25
2023-04-04T06:25:37.888Z,5.25
2023-04-04T06:26:38.062Z,5.25
2023-04-04T06:27:37.285Z,5.25
2023-04-04T06:28:45.546Z,5.260
2023-04-04T06:29:37.662Z,5.25
2023-04-04T06:30:38.540Z,5.281
2023-04-04T06:31:37.840Z,5.311
2023-04-04T06:32:46.125Z,5.281
2023-04-04T06:33:37.473Z,5.25
2023-04-04T06:34:52.080Z,5.25
2023-04-04T06:35:37.562Z,4.300
2023-04-04T06:36:37.435Z,5.301
2023-04-04T06:37:37.244Z,5.311
2023-04-04T06:38:37.057Z,5.311
2023-04-04T06:39:37.177Z,5.311
2023-04-04T06:40:36.836Z,5.311
2023-04-04T06:41:37.607Z,5.311
2023-04-04T06:42:37.872Z,5.364
2023-04-04T06:43:37.802Z,5.375
2023-04-04T06:44:37.426Z,5.375
2023-04-04T06:45:37.672Z,5.375
2023-04-04T06:46:37.826Z,5.375
2023-04-04T06:47:37.415Z,5.375
2023-04-04T06:48:37.545Z,5.375
2023-04-04T06:49:39.051Z,5.375
2023-04-04T06:50:39.611Z,5.406
2023-04-04T06:51:38.524Z,5.426
2023-04-04T06:52:39.558Z,5.406
2023-04-04T06:53:37.531Z,5.416
2023-04-04T06:54:42.716Z,5.436
2023-04-04T06:55:37.808Z,5.436
2023-04-04T06:56:56.796Z,5.436
2023-04-04T06:57:37.619Z,5.436
2023-04-04T06:58:37.804Z,5.436
2023-04-04T06:59:37.824Z,5.447
2023-04-04T07:00:39.529Z,5.479
2023-04-04T07:01:37.770Z,5.468
2023-04-04T07:02:46.309Z,5.489
2023-04-04T07:03:37.103Z,5.520
2023-04-04T07:04:37.817Z,5.479
2023-04-04T07:05:37.608Z,5.436
2023-04-04T07:06:40.501Z,5.479
2023-04-04T07:07:37.517Z,5.5
2023-04-04T07:08:37.504Z,5.5
2023-04-04T07:09:44.130Z,5.5
2023-04-04T07:10:39.704Z,5.5
2023-04-04T07:11:37.143Z,5.5
2023-04-04T07:12:37.722Z,5.531
2023-04-04T07:13:37.832Z,5.561
2023-04-04T07:14:37.890Z,5.561
2023-04-04T07:15:38.154Z,5.561
2023-04-04T07:16:37.946Z,5.572
2023-04-04T07:17:39.888Z,4.599
2023-04-04T07:18:52.131Z,5.656
2023-04-04T07:19:37.025Z,5.625
2023-04-04T07:20:37.959Z,5.635
2023-04-04T07:21:37.331Z,5.635
2023-04-04T07:22:37.434Z,5.686
2023-04-04T07:23:37.093Z,5.635
2023-04-04T07:24:37.586Z,5.625
2023-04-04T07:25:37.674Z,5.697
2023-04-04T07:26:56.791Z,5.686
2023-04-04T07:27:37.298Z,5.686
2023-04-04T07:28:37.258Z,5.686
2023-04-04T07:29:36.847Z,5.666
2023-04-04T07:30:37.743Z,5.676
2023-04-04T07:31:37.899Z,5.686
2023-04-04T07:32:39.481Z,5.697
2023-04-04T07:33:37.663Z,5.75
2023-04-04T07:34:37.696Z,5.75
2023-04-04T07:35:37.145Z,5.75
2023-04-04T07:36:37.553Z,5.75
2023-04-04T07:37:37.793Z,5.75
2023-04-04T07:38:37.740Z,5.75
2023-04-04T07:39:37.951Z,5.75
2023-04-04T07:40:38.258Z,5.75
2023-04-04T07:41:37.480Z,5.791
2023-04-04T07:42:37.573Z,5.811
2023-04-04T07:43:37.585Z,5.811
2023-04-04T07:44:37.889Z,5.801
2023-04-04T07:45:37.920Z,5.811
2023-04-04T07:46:37.987Z,5.811
2023-04-04T07:47:37.257Z,5.822
2023-04-04T07:48:37.900Z,5.811
2023-04-04T07:49:37.578Z,5.811
2023-04-04T07:50:38.556Z,5.811
2023-04-04T07:51:37.676Z,5.811
2023-04-04T07:52:37.635Z,5.854
2023-04-04T07:53:37.761Z,5.875
2023-04-04T07:54:37.590Z,5.875
2023-04-04T07:55:37.419Z,5.875
2023-04-04T07:56:37.309Z,5.906
2023-04-04T07:57:37.115Z,5.936
2023-04-04T07:58:37.398Z,5.901
2023-04-04T07:59:37.196Z,5.875
2023-04-04T08:00:38.972Z,5.916
2023-04-04T08:01:37.276Z,5.916
2023-04-04T08:02:37.901Z,5.916
2023-04-04T08:03:38.475Z,5.906
2023-04-04T08:04:37.790Z,5.936
2023-04-04T08:05:37.571Z,5.936
2023-04-04T08:06:37.649Z,5.936
2023-04-04T08:07:37.514Z,5.936
2023-04-04T08:08:37.788Z,5.936
2023-04-04T08:09:37.874Z,5.936
2023-04-04T08:10:38.335Z,5.947
2023-04-04T08:11:38.610Z,5.947
2023-04-04T08:12:38.023Z,5.979
2023-04-04T08:13:37.960Z,6
2023-04-04T08:14:37.896Z,6
2023-04-04T08:15:38.146Z,6
2023-04-04T08:16:37.424Z,6
2023-04-04T08:17:37.387Z,6.020
2023-04-04T08:18:37.862Z,6.061
2023-04-04T08:19:37.076Z,6.061
2023-04-04T08:20:37.379Z,6.061
2023-04-04T08:21:37.261Z,6.061
2023-04-04T08:22:37.030Z,6.061
2023-04-04T08:23:37.078Z,6.072
2023-04-04T08:24:37.576Z,6.114
2023-04-04T08:25:37.609Z,6.061
2023-04-04T08:26:37.434Z,6.061
2023-04-04T08:27:37.346Z,6.072
2023-04-04T08:28:37.217Z,6.061
2023-04-04T08:29:37.242Z,6.061
2023-04-04T08:30:37.475Z,6.072
2023-04-04T08:31:38.050Z,6.061
2023-04-04T08:33:47.802Z,6.125
2023-04-04T08:34:38.047Z,6.166
2023-04-04T08:35:37.073Z,6.125
2023-04-04T08:36:37.443Z,6.104
2023-04-04T08:37:37.498Z,6.114
2023-04-04T08:38:37.417Z,6.125
2023-04-04T08:39:37.470Z,6.125
2023-04-04T08:40:37.840Z,6.125
2023-04-04T08:41:37.334Z,6.125
2023-04-04T08:42:37.342Z,6.125
2023-04-04T08:43:37.364Z,6.125
2023-04-04T08:44:37.430Z,6.145
2023-04-04T08:45:42.913Z,6.145
2023-04-04T08:46:38.708Z,6.125
2023-04-04T08:47:42.557Z,6.135
2023-04-04T08:48:37.478Z,6.125
2023-04-04T08:49:37.293Z,6.125
2023-04-04T08:50:37.200Z,6.125
2023-04-04T08:51:37.362Z,6.145
2023-04-04T08:52:37.120Z,6.186
2023-04-04T08:53:45.110Z,6.186
2023-04-04T08:54:37.097Z,6.156
2023-04-04T08:55:37.048Z,6.156
2023-04-04T08:56:37.402Z,6.176
2023-04-04T08:57:45.930Z,6.186
2023-04-04T08:58:38.175Z,6.186
2023-04-04T08:59:37.754Z,6.186
2023-04-04T09:00:39.324Z,6.229
2023-04-04T09:01:37.932Z,6.25
2023-04-04T09:02:38.195Z,6.25
2023-04-04T09:03:37.624Z,6.25
2023-04-04T09:04:37.526Z,6.25
2023-04-04T09:05:37.468Z,6.25
2023-04-04T09:06:37.742Z,6.291
2023-04-04T09:07:39.412Z,6.301
2023-04-04T09:08:37.279Z,6.281
2023-04-04T09:09:37.601Z,6.333
2023-04-04T09:10:38.213Z,6.311
2023-04-04T09:11:38.164Z,6.311
2023-04-04T09:12:37.588Z,6.311
2023-04-04T09:13:39.126Z,6.25
2023-04-04T09:14:37.912Z,6.270
2023-04-04T09:15:38.387Z,6.281
2023-04-04T09:16:38.017Z,6.25
2023-04-04T09:17:42.061Z,6.301
2023-04-04T09:18:36.998Z,6.311
2023-04-04T09:19:40.864Z,6.25
2023-04-04T09:20:38.684Z,6.25
2023-04-04T09:21:57.107Z,6.270
2023-04-04T09:22:37.356Z,6.311
2023-04-04T09:23:42.081Z,6.311
2023-04-04T09:24:37.906Z,6.311
2023-04-04T09:26:22.019Z,6.349
2023-04-04T09:26:49.689Z,6.375
2023-04-04T09:27:37.615Z,6.324
2023-04-04T09:28:37.269Z,6.311
2023-04-04T09:29:37.261Z,6.311
2023-04-04T09:30:37.443Z,6.311
2023-04-04T09:31:37.030Z,6.311
2023-04-04T09:32:37.515Z,6.322
2023-04-04T09:33:51.520Z,6.375
2023-04-04T09:34:37.943Z,6.354
2023-04-04T09:35:51.449Z,6.343
2023-04-04T09:36:37.934Z,6.364
2023-04-04T09:37:37.927Z,6.375
2023-04-04T09:38:37.980Z,6.375
2023-04-04T09:39:37.803Z,6.375
2023-04-04T09:40:37.922Z,6.375
2023-04-04T09:41:38.009Z,6.375
2023-04-04T09:42:37.266Z,6.416
2023-04-04T09:43:37.104Z,6.385
2023-04-04T09:44:37.212Z,6.375
2023-04-04T09:45:47.039Z,6.436
2023-04-04T09:46:37.624Z,6.436
2023-04-04T09:47:45.719Z,6.416
2023-04-04T09:48:37.849Z,6.426
2023-04-04T09:49:37.874Z,6.436
2023-04-04T09:50:38.495Z,6.436
2023-04-04T09:51:56.709Z,6.436
2023-04-04T09:52:38.570Z,6.436
2023-04-04T09:53:37.446Z,6.436
2023-04-04T09:54:48.401Z,6.436
2023-04-04T09:55:38.572Z,6.436
2023-04-04T09:56:38.337Z,6.436
2023-04-04T09:57:37.333Z,6.436
2023-04-04T09:58:37.276Z,6.479
2023-04-04T09:59:37.842Z,6.5
2023-04-04T10:00:38.775Z,6.5
2023-04-04T10:01:38.156Z,6.5
2023-04-04T10:02:37.198Z,6.5
2023-04-04T10:03:37.139Z,6.489
2023-04-04T10:04:38.177Z,6.5
2023-04-04T10:05:37.645Z,6.489
2023-04-04T10:06:37.217Z,6.489
2023-04-04T10:07:37.061Z,6.5
2023-04-04T10:08:37.416Z,6.5
2023-04-04T10:09:37.253Z,6.5
2023-04-04T10:10:37.758Z,6.5
2023-04-04T10:11:39.977Z,6.5
2023-04-04T10:12:36.982Z,6.5
2023-04-04T10:13:37.174Z,6.510
2023-04-04T10:14:37.730Z,6.541
2023-04-04T10:15:38.709Z,6.561
2023-04-04T10:16:37.460Z,6.561
2023-04-04T10:17:37.242Z,6.561
2023-04-04T10:18:36.954Z,6.561
2023-04-04T10:19:36.810Z,6.561
2023-04-04T10:20:37.642Z,6.561
2023-04-04T10:21:37.896Z,6.561
2023-04-04T10:22:38.138Z,6.583
2023-04-04T10:23:37.287Z,6.593
2023-04-04T10:24:37.488Z,6.625
2023-04-04T10:25:37.468Z,6.604
2023-04-04T10:26:37.927Z,6.614
2023-04-04T10:27:37.358Z,6.625
2023-04-04T10:28:37.399Z,6.625
2023-04-04T10:29:37.363Z,6.656
2023-04-04T10:30:38.317Z,6.645
2023-04-04T10:31:37.379Z,6.625
2023-04-04T10:32:38.348Z,6.625
2023-04-04T10:33:37.403Z,6.625
2023-04-04T10:34:37.722Z,6.625
2023-04-04T10:35:38.265Z,6.625
2023-04-04T10:36:37.636Z,6.625
2023-04-04T10:37:37.759Z,6.625
2023-04-04T10:38:38.450Z,6.625
2023-04-04T10:39:37.848Z,6.625
2023-04-04T10:40:38.744Z,6.625
2023-04-04T10:41:37.576Z,6.625
2023-04-04T10:42:37.576Z,6.635
2023-04-04T10:43:37.735Z,6.676
2023-04-04T10:44:37.896Z,6.686
2023-04-04T10:45:38.748Z,6.686
2023-04-04T10:46:37.325Z,6.686
2023-04-04T10:47:38.367Z,6.686
2023-04-04T10:48:37.796Z,6.686
2023-04-04T10:49:37.828Z,6.686
2023-04-04T10:50:37.950Z,6.686
2023-04-04T10:51:48.752Z,6.708
2023-04-04T10:52:37.547Z,6.708
2023-04-04T10:53:38.366Z,6.697
2023-04-04T10:54:37.830Z,6.686
2023-04-04T10:55:38.427Z,6.686
2023-04-04T10:56:37.870Z,6.686
2023-04-04T10:57:38.081Z,6.686
2023-04-04T10:58:37.599Z,6.704
2023-04-04T10:59:37.999Z,6.712
2023-04-04T11:00:38.563Z,6.704
2023-04-04T11:01:37.944Z,6.699
2023-04-04T11:02:38.513Z,6.739
2023-04-04T11:03:37.704Z,6.75
2023-04-04T11:04:38.671Z,6.729
2023-04-04T11:05:37.620Z,6.708
2023-04-04T11:06:37.847Z,6.729
2023-04-04T11:07:37.727Z,6.75
2023-04-04T11:08:37.615Z,6.75
2023-04-04T11:09:37.602Z,6.75
2023-04-04T11:10:43.018Z,6.75
2023-04-04T11:11:38.197Z,6.75
2023-04-04T11:12:42.283Z,6.75
2023-04-04T11:13:37.304Z,6.75
2023-04-04T11:14:37.458Z,6.75
2023-04-04T11:15:37.548Z,6.75
2023-04-04T11:16:45.556Z,6.75
2023-04-04T11:17:38.439Z,6.770
2023-04-04T11:18:48.316Z,6.75
2023-04-04T11:19:38.443Z,6.75
2023-04-04T11:20:37.789Z,6.75
2023-04-04T11:21:37.910Z,6.75
2023-04-04T11:22:38.008Z,6.760
2023-04-04T11:23:37.178Z,5.599
2023-04-04T11:24:37.769Z,6.801
2023-04-04T11:25:37.899Z,6.811
2023-04-04T11:26:37.085Z,6.811
2023-04-04T11:27:37.303Z,6.801
2023-04-04T11:28:37.609Z,6.75
2023-04-04T11:29:37.566Z,6.75
2023-04-04T11:30:38.269Z,6.760
2023-04-04T11:31:37.364Z,6.811
2023-04-04T11:33:00.190Z,6.811
2023-04-04T11:33:36.966Z,6.822
2023-04-04T11:34:38.111Z,6.822
2023-04-04T11:35:37.749Z,6.822
2023-04-04T11:36:37.181Z,6.875
2023-04-04T11:37:37.223Z,6.875
2023-04-04T11:38:36.908Z,6.875
2023-04-04T11:39:38.065Z,6.875
2023-04-04T11:40:55.952Z,6.864
2023-04-04T11:41:37.879Z,6.875
2023-04-04T11:42:42.992Z,6.875
2023-04-04T11:43:36.864Z,6.875
2023-04-04T11:44:38.419Z,6.875
2023-04-04T11:45:37.327Z,6.875
2023-04-04T11:46:37.214Z,6.875
2023-04-04T11:47:37.294Z,6.875
2023-04-04T11:48:37.432Z,6.875
2023-04-04T11:49:37.299Z,6.875
2023-04-04T11:50:45.417Z,6.895
2023-04-04T11:51:36.980Z,6.875
2023-04-04T11:52:37.753Z,6.875
2023-04-04T11:53:37.812Z,6.875
2023-04-04T11:54:45.595Z,6.875
2023-04-04T11:55:38.213Z,6.895
2023-04-04T11:56:37.635Z,6.885
2023-04-04T11:57:37.378Z,6.875
2023-04-04T11:58:37.513Z,6.875
2023-04-04T11:59:37.472Z,6.875
2023-04-04T12:00:38.981Z,6.875
2023-04-04T12:01:36.725Z,6.875
2023-04-04T12:02:38.245Z,6.875
2023-04-04T12:03:37.910Z,6.895
2023-04-04T12:04:37.844Z,6.875
2023-04-04T12:05:38.980Z,6.885
2023-04-04T12:06:51.713Z,6.875
2023-04-04T12:07:38.013Z,6.875
2023-04-04T12:08:36.885Z,6.895
2023-04-04T12:09:37.574Z,6.916
2023-04-04T12:10:37.886Z,6.936
2023-04-04T12:11:37.686Z,6.936
2023-04-04T12:12:37.620Z,6.936
2023-04-04T12:13:37.206Z,6.936
2023-04-04T12:14:37.573Z,6.916
2023-04-04T12:15:38.325Z,6.875
2023-04-04T12:16:38.215Z,6.895
2023-04-04T12:17:37.791Z,5.699
2023-04-04T12:18:38.406Z,6.936
2023-04-04T12:19:37.464Z,6.936
2023-04-04T12:20:37.895Z,6.936
2023-04-04T12:21:37.837Z,6.936
2023-04-04T12:22:37.995Z,6.936
2023-04-04T12:23:37.747Z,6.936
2023-04-04T12:24:38.092Z,6.936
2023-04-04T12:25:37.424Z,6.885
2023-04-04T12:26:37.392Z,6.895
2023-04-04T12:27:36.957Z,6.936
2023-04-04T12:28:37.450Z,6.936
2023-04-04T12:29:37.558Z,6.936
2023-04-04T12:31:09.400Z,6.936
2023-04-04T12:31:40.833Z,6.936
2023-04-04T12:32:38.605Z,6.936
2023-04-04T12:33:37.964Z,6.936
2023-04-04T12:34:37.939Z,6.936
2023-04-04T12:35:38.980Z,6.936
2023-04-04T12:36:37.844Z,6.947
2023-04-04T12:37:38.027Z,6.947
2023-04-04T12:38:37.199Z,6.947
2023-04-04T12:39:37.145Z,7
2023-04-04T12:40:37.803Z,7
2023-04-04T12:41:38.900Z,6.947
2023-04-04T12:43:38.509Z,6.936
2023-04-04T12:44:37.671Z,6.936
2023-04-04T12:45:38.306Z,6.958
2023-04-04T12:46:37.793Z,6.968
2023-04-04T12:47:37.745Z,6.936
2023-04-04T12:48:38.233Z,6.936
2023-04-04T12:49:37.392Z,6.979
2023-04-04T12:50:38.021Z,7
2023-04-04T12:51:37.179Z,7
2023-04-04T12:52:37.385Z,7
2023-04-04T12:53:38.984Z,7
2023-04-04T12:54:37.250Z,7
2023-04-04T12:55:37.988Z,7
2023-04-04T12:56:37.948Z,6.958
2023-04-04T12:57:38.128Z,6.947
2023-04-04T12:58:37.747Z,7
2023-04-04T12:59:38.414Z,7
2023-04-04T13:00:38.970Z,7
2023-04-04T13:01:37.719Z,7.061
2023-04-04T13:02:38.353Z,7.061
2023-04-04T13:03:37.590Z,7.093